Time;durP1;ratioP1;P1;durP2;ratioP2;P2;SDS_P1;SDS_P2;PMS_P1;PMS_P2;Temp;Humidity;BMP_temperature;BMP_pressure;BME280_temperature;BME280_humidity;BME280_pressure;Samples;Min_cycle;Max_cycle;Signal;HPM_P1;HPM_P2
2021/08/26 00:00:29;;;;;;;51.92;16.65;;;;;;;;;;5054330;28;20469;-74
2021/08/26 00:05:48;;;;;;;48.30;15.60;;;;;;;;;;5054247;28;20027;-74
2021/08/26 00:08:17;;;;;;;49.28;17.60;;;;;;;;;;5054081;28;20064;-74
2021/08/26 00:10:43;;;;;;;50.42;16.48;;;;;;;;;;5053979;28;20025;-74
2021/08/26 00:13:09;;;;;;;48.03;15.73;;;;;;;;;;5054025;28;20029;-74
2021/08/26 00:15:35;;;;;;;45.55;15.82;;;;;;;;;;5053968;28;20018;-76
2021/08/26 00:18:01;;;;;;;42.13;14.90;;;;;;;;;;5053805;28;20028;-74
2021/08/26 00:20:26;;;;;;;48.33;16.13;;;;;;;;;;5053576;28;20073;-74
2021/08/26 00:22:51;;;;;;;46.17;15.25;;;;;;;;;;5053879;28;20020;-74
2021/08/26 00:28:46;;;;;;;55.70;17.65;;;;;;;;;;5053646;28;20152;-74
2021/08/26 00:31:11;;;;;;;43.10;15.75;;;;;;;;;;5053511;28;20501;-74
2021/08/26 00:33:37;;;;;;;62.50;18.88;;;;;;;;;;5053684;28;20021;-74
2021/08/26 00:36:02;;;;;;;45.80;16.20;;;;;;;;;;5053757;28;20423;-74
2021/08/26 00:38:27;;;;;;;43.65;16.10;;;;;;;;;;5053386;28;20424;-74
2021/08/26 00:40:53;;;;;;;49.08;17.63;;;;;;;;;;5053587;28;20095;-74
2021/08/26 00:43:18;;;;;;;50.22;16.02;;;;;;;;;;5053264;28;20021;-74
2021/08/26 00:45:45;;;;;;;53.25;17.05;;;;;;;;;;5053628;28;20484;-74
2021/08/26 00:48:10;;;;;;;38.85;14.95;;;;;;;;;;5053459;28;20075;-74
2021/08/26 00:50:36;;;;;;;50.42;16.92;;;;;;;;;;5053580;28;20016;-74
2021/08/26 00:53:01;;;;;;;33.58;14.65;;;;;;;;;;5053184;28;20037;-74
2021/08/26 00:55:26;;;;;;;48.20;16.60;;;;;;;;;;5053380;28;20024;-74
2021/08/26 00:57:52;;;;;;;38.05;14.45;;;;;;;;;;5053373;28;20446;-74
2021/08/26 01:00:18;;;;;;;38.90;15.63;;;;;;;;;;5053283;28;20087;-74
2021/08/26 01:02:46;;;;;;;39.03;15.80;;;;;;;;;;5052938;28;20066;-74
2021/08/26 01:05:26;;;;;;;37.53;14.63;;;;;;;;;;5053381;28;20025;-74
2021/08/26 01:08:20;;;;;;;53.08;17.27;;;;;;;;;;5053478;28;20134;-74
2021/08/26 01:10:52;;;;;;;36.35;14.77;;;;;;;;;;5035339;28;20064;-74
2021/08/26 01:13:18;;;;;;;35.50;13.90;;;;;;;;;;5053201;28;20033;-74
2021/08/26 01:16:02;;;;;;;41.65;15.20;;;;;;;;;;5053207;28;20313;-74
2021/08/26 01:18:27;;;;;;;36.90;15.18;;;;;;;;;;5053138;28;20029;-74
2021/08/26 01:20:53;;;;;;;32.72;13.63;;;;;;;;;;5053053;28;20389;-74
2021/08/26 01:23:18;;;;;;;42.97;15.65;;;;;;;;;;5053077;28;20024;-74
2021/08/26 01:25:44;;;;;;;45.92;15.50;;;;;;;;;;5053120;28;20029;-74
2021/08/26 01:28:10;;;;;;;32.55;13.10;;;;;;;;;;5053388;28;20037;-75
2021/08/26 01:30:38;;;;;;;36.40;15.02;;;;;;;;;;5057076;28;20048;-74
2021/08/26 01:33:04;;;;;;;43.33;15.50;;;;;;;;;;5056762;28;20437;-74
2021/08/26 01:35:29;;;;;;;31.80;14.10;;;;;;;;;;5057062;28;20067;-74
2021/08/26 01:37:55;;;;;;;29.42;13.07;;;;;;;;;;5056984;28;20473;-74
2021/08/26 01:40:31;;;;;;;34.92;14.15;;;;;;;;;;5039046;28;20055;-74
2021/08/26 01:42:56;;;;;;;38.42;13.80;;;;;;;;;;5056492;28;20563;-75
2021/08/26 01:45:21;;;;;;;32.97;14.25;;;;;;;;;;5056957;28;20052;-74
2021/08/26 01:47:47;;;;;;;33.60;13.35;;;;;;;;;;5056821;28;20082;-74
2021/08/26 01:50:12;;;;;;;25.20;10.45;;;;;;;;;;5056856;28;20037;-75
2021/08/26 01:52:37;;;;;;;31.35;11.80;;;;;;;;;;5056709;28;20060;-75
2021/08/26 01:55:04;;;;;;;30.08;12.40;;;;;;;;;;5056807;28;20036;-74
2021/08/26 01:57:30;;;;;;;37.05;14.25;;;;;;;;;;5056703;28;20100;-74
2021/08/26 01:59:57;;;;;;;55.40;14.57;;;;;;;;;;5056034;28;20083;-74
2021/08/26 02:02:22;;;;;;;32.22;13.38;;;;;;;;;;5056362;28;20060;-74
2021/08/26 02:04:47;;;;;;;30.02;13.05;;;;;;;;;;5056330;28;20052;-75
2021/08/26 02:07:13;;;;;;;35.58;13.90;;;;;;;;;;5056234;28;20029;-74
2021/08/26 02:09:38;;;;;;;30.10;12.10;;;;;;;;;;5056451;28;20029;-74
2021/08/26 02:12:05;;;;;;;27.77;11.82;;;;;;;;;;5056379;28;20028;-74
2021/08/26 02:14:31;;;;;;;27.85;12.20;;;;;;;;;;5056400;28;20029;-74
2021/08/26 02:16:56;;;;;;;23.13;11.10;;;;;;;;;;5056269;28;20064;-76
2021/08/26 02:19:22;;;;;;;29.40;12.05;;;;;;;;;;5056316;28;20052;-74
2021/08/26 02:21:47;;;;;;;25.23;11.45;;;;;;;;;;5056202;28;20037;-74
2021/08/26 02:24:12;;;;;;;25.52;11.82;;;;;;;;;;5055851;28;20536;-75
2021/08/26 02:26:37;;;;;;;27.42;12.13;;;;;;;;;;5056215;28;20027;-75
2021/08/26 02:29:04;;;;;;;33.88;12.55;;;;;;;;;;5056105;28;20465;-74
2021/08/26 02:31:29;;;;;;;23.65;10.80;;;;;;;;;;5055561;28;20550;-74
2021/08/26 02:33:54;;;;;;;21.67;10.55;;;;;;;;;;5055941;28;20021;-75
2021/08/26 02:36:20;;;;;;;23.75;10.27;;;;;;;;;;5055936;28;20032;-75
2021/08/26 02:38:45;;;;;;;18.88;9.70;;;;;;;;;;5055922;28;20029;-74
2021/08/26 02:41:10;;;;;;;30.88;11.55;;;;;;;;;;5055788;28;20383;-74
2021/08/26 02:43:35;;;;;;;27.70;11.48;;;;;;;;;;5055852;28;20029;-74
2021/08/26 02:46:01;;;;;;;24.30;12.23;;;;;;;;;;5055718;28;20055;-74
2021/08/26 02:48:26;;;;;;;21.15;10.18;;;;;;;;;;5055718;28;20029;-74
2021/08/26 02:50:51;;;;;;;23.15;10.13;;;;;;;;;;5055714;28;20040;-75
2021/08/26 02:53:17;;;;;;;21.88;10.18;;;;;;;;;;5055577;28;20033;-74
2021/08/26 02:55:42;;;;;;;25.40;11.75;;;;;;;;;;5055565;28;20363;-75
2021/08/26 02:58:07;;;;;;;22.60;10.23;;;;;;;;;;5055539;28;20485;-74
2021/08/26 03:00:32;;;;;;;30.73;11.95;;;;;;;;;;5055796;28;20067;-75
2021/08/26 03:02:58;;;;;;;31.60;11.93;;;;;;;;;;5055299;28;20029;-75
2021/08/26 03:05:23;;;;;;;26.42;11.02;;;;;;;;;;5055444;28;20443;-75
2021/08/26 03:07:48;;;;;;;37.42;13.40;;;;;;;;;;5055341;28;20033;-76
2021/08/26 03:10:13;;;;;;;35.50;13.10;;;;;;;;;;5054648;28;20029;-74
2021/08/26 03:12:39;;;;;;;38.13;12.95;;;;;;;;;;5055377;28;20028;-74
2021/08/26 03:15:04;;;;;;;30.17;12.65;;;;;;;;;;5055119;28;20040;-74
2021/08/26 03:17:29;;;;;;;41.20;13.65;;;;;;;;;;5055418;28;20057;-74
2021/08/26 03:19:55;;;;;;;42.13;14.07;;;;;;;;;;5055038;28;20047;-74
2021/08/26 03:22:20;;;;;;;40.53;14.35;;;;;;;;;;5055022;28;20033;-74
2021/08/26 03:24:45;;;;;;;42.42;14.07;;;;;;;;;;5054930;28;20013;-74
2021/08/26 03:27:11;;;;;;;50.58;14.93;;;;;;;;;;5055039;28;20025;-74
2021/08/26 03:29:36;;;;;;;37.83;13.80;;;;;;;;;;5055008;28;20029;-74
2021/08/26 03:32:01;;;;;;;38.47;15.30;;;;;;;;;;5054519;28;20045;-75
2021/08/26 03:34:27;;;;;;;51.58;15.93;;;;;;;;;;5054828;28;20371;-74
2021/08/26 03:36:52;;;;;;;47.90;15.07;;;;;;;;;;5054798;28;20039;-74
2021/08/26 03:39:17;;;;;;;32.67;13.13;;;;;;;;;;5054744;28;20498;-74
2021/08/26 03:41:42;;;;;;;50.85;15.30;;;;;;;;;;5054652;28;20477;-74
2021/08/26 03:44:08;;;;;;;50.55;15.63;;;;;;;;;;5054369;28;20033;-75
2021/08/26 03:46:33;;;;;;;42.67;15.43;;;;;;;;;;5054659;28;20020;-74
2021/08/26 03:48:58;;;;;;;35.58;14.55;;;;;;;;;;5054482;28;20083;-74
2021/08/26 03:51:23;;;;;;;37.28;14.75;;;;;;;;;;5054075;28;20079;-74
2021/08/26 03:53:49;;;;;;;47.50;15.50;;;;;;;;;;5054475;28;20066;-74
2021/08/26 03:56:14;;;;;;;33.33;12.20;;;;;;;;;;5054173;28;20107;-74
2021/08/26 03:58:39;;;;;;;43.88;15.13;;;;;;;;;;5054441;28;20040;-74
2021/08/26 04:01:05;;;;;;;33.17;13.02;;;;;;;;;;5054187;28;20036;-74
2021/08/26 04:03:31;;;;;;;31.58;11.77;;;;;;;;;;5054386;28;20025;-74
2021/08/26 04:05:56;;;;;;;45.10;14.15;;;;;;;;;;5054268;28;20029;-74
2021/08/26 04:08:21;;;;;;;41.80;15.02;;;;;;;;;;5054241;28;20025;-74
2021/08/26 04:10:47;;;;;;;42.22;15.43;;;;;;;;;;5054225;28;20021;-74
2021/08/26 04:13:12;;;;;;;49.35;15.45;;;;;;;;;;5053819;28;20041;-74
2021/08/26 04:15:37;;;;;;;51.38;16.63;;;;;;;;;;5054133;28;20029;-74
2021/08/26 04:18:02;;;;;;;47.50;16.95;;;;;;;;;;5053970;28;20473;-74
2021/08/26 04:20:28;;;;;;;52.90;17.02;;;;;;;;;;5054038;28;20123;-74
2021/08/26 04:22:53;;;;;;;50.28;15.55;;;;;;;;;;5053890;28;20021;-74
2021/08/26 04:25:18;;;;;;;50.28;16.67;;;;;;;;;;5053880;28;20442;-74
2021/08/26 04:27:43;;;;;;;37.38;14.95;;;;;;;;;;5053865;28;20033;-75
2021/08/26 04:30:09;;;;;;;40.03;15.30;;;;;;;;;;5053859;28;20389;-74
2021/08/26 04:32:34;;;;;;;25.92;12.55;;;;;;;;;;5053948;28;20106;-75
2021/08/26 04:35:00;;;;;;;38.70;14.85;;;;;;;;;;5053650;28;20033;-75
2021/08/26 04:37:26;;;;;;;35.20;13.52;;;;;;;;;;5053808;28;20059;-75
2021/08/26 04:39:51;;;;;;;33.35;12.88;;;;;;;;;;5053628;28;20032;-74
2021/08/26 04:42:17;;;;;;;38.17;13.95;;;;;;;;;;5053697;28;20033;-74
2021/08/26 04:44:42;;;;;;;28.13;12.07;;;;;;;;;;5053624;28;20511;-75
2021/08/26 04:47:07;;;;;;;33.30;13.10;;;;;;;;;;5053564;28;20025;-75
2021/08/26 04:49:32;;;;;;;26.95;12.48;;;;;;;;;;5053372;28;20417;-74
2021/08/26 04:51:58;;;;;;;40.40;14.43;;;;;;;;;;5053550;28;20025;-74
2021/08/26 04:54:23;;;;;;;34.20;12.10;;;;;;;;;;5053481;28;20065;-74
2021/08/26 04:56:48;;;;;;;33.70;12.60;;;;;;;;;;5053496;28;20025;-74
2021/08/26 04:59:13;;;;;;;28.10;12.35;;;;;;;;;;5053448;28;20376;-74
2021/08/26 05:01:39;;;;;;;28.35;12.60;;;;;;;;;;5053380;28;20095;-74
2021/08/26 05:04:04;;;;;;;25.17;11.68;;;;;;;;;;5052357;28;20029;-74
2021/08/26 05:06:33;;;;;;;28.23;12.35;;;;;;;;;;5053724;28;20366;-75
2021/08/26 05:08:58;;;;;;;29.70;12.95;;;;;;;;;;5053481;28;20025;-75
2021/08/26 05:11:24;;;;;;;30.42;12.50;;;;;;;;;;5053383;28;20048;-75
2021/08/26 05:13:49;;;;;;;25.85;10.90;;;;;;;;;;5053149;28;20025;-75
2021/08/26 05:16:14;;;;;;;27.10;11.80;;;;;;;;;;5053165;28;20389;-75
2021/08/26 05:18:40;;;;;;;24.10;11.30;;;;;;;;;;5053216;28;20159;-74
2021/08/26 05:21:05;;;;;;;22.50;11.07;;;;;;;;;;5053333;28;20040;-74
2021/08/26 05:23:30;;;;;;;24.08;12.18;;;;;;;;;;5053206;28;20552;-75
2021/08/26 05:25:56;;;;;;;44.88;14.90;;;;;;;;;;5053182;28;20033;-74
2021/08/26 05:28:21;;;;;;;30.20;13.30;;;;;;;;;;5053469;28;20029;-75
2021/08/26 05:30:46;;;;;;;41.67;16.05;;;;;;;;;;5052939;28;20435;-75
2021/08/26 05:33:11;;;;;;;41.45;17.08;;;;;;;;;;5053040;28;20104;-75
2021/08/26 05:35:37;;;;;;;46.63;18.17;;;;;;;;;;5053049;28;20064;-75
2021/08/26 05:38:02;;;;;;;51.28;17.98;;;;;;;;;;5052907;28;20432;-75
2021/08/26 05:40:27;;;;;;;66.50;22.83;;;;;;;;;;5053256;28;20041;-75
2021/08/26 05:42:53;;;;;;;57.15;18.42;;;;;;;;;;5052943;28;20407;-74
2021/08/26 05:45:18;;;;;;;69.85;22.80;;;;;;;;;;5052889;28;20385;-74
2021/08/26 05:47:43;;;;;;;69.40;24.40;;;;;;;;;;5053046;28;20036;-74
2021/08/26 05:50:09;;;;;;;96.85;28.00;;;;;;;;;;5052900;28;20070;-74
2021/08/26 05:52:34;;;;;;;116.90;32.40;;;;;;;;;;5052918;28;20461;-74
2021/08/26 05:54:59;;;;;;;121.60;36.10;;;;;;;;;;5052621;28;20036;-75
2021/08/26 05:57:24;;;;;;;126.13;35.17;;;;;;;;;;5051768;28;20016;-75
2021/08/26 05:59:50;;;;;;;106.28;34.80;;;;;;;;;;5052544;28;20029;-75
2021/08/26 06:02:15;;;;;;;104.72;35.88;;;;;;;;;;5052410;28;20024;-74
2021/08/26 06:04:40;;;;;;;107.85;34.42;;;;;;;;;;5035305;28;20090;-74
2021/08/26 06:07:06;;;;;;;95.15;32.35;;;;;;;;;;5052664;28;20029;-75
2021/08/26 06:09:31;;;;;;;104.90;33.03;;;;;;;;;;5052905;28;20033;-75
2021/08/26 06:11:56;;;;;;;99.28;33.70;;;;;;;;;;5052641;28;20032;-75
2021/08/26 06:14:22;;;;;;;94.47;31.83;;;;;;;;;;5053129;28;20444;-74
2021/08/26 06:16:47;;;;;;;76.85;30.50;;;;;;;;;;5056040;28;20039;-75
2021/08/26 06:19:12;;;;;;;98.88;31.10;;;;;;;;;;5056357;28;20028;-74
2021/08/26 06:21:37;;;;;;;87.45;30.38;;;;;;;;;;5056205;28;20127;-74
2021/08/26 06:24:06;;;;;;;69.30;26.27;;;;;;;;;;5056109;28;20128;-74
2021/08/26 06:26:31;;;;;;;83.68;28.45;;;;;;;;;;5056236;28;20017;-75
2021/08/26 06:28:57;;;;;;;75.47;27.42;;;;;;;;;;5056053;28;20453;-75
2021/08/26 06:31:22;;;;;;;82.53;31.10;;;;;;;;;;5055992;28;20111;-76
2021/08/26 06:33:47;;;;;;;70.85;26.08;;;;;;;;;;5055994;28;20513;-75
2021/08/26 06:36:12;;;;;;;76.65;27.00;;;;;;;;;;5055917;28;20036;-75
2021/08/26 06:38:38;;;;;;;69.82;30.13;;;;;;;;;;5055791;28;20029;-75
2021/08/26 06:41:03;;;;;;;62.53;24.98;;;;;;;;;;5055965;28;20032;-75
2021/08/26 06:43:28;;;;;;;65.70;24.30;;;;;;;;;;5055868;28;20470;-75
2021/08/26 06:45:54;;;;;;;66.40;25.77;;;;;;;;;;5055981;28;20037;-75
2021/08/26 06:48:19;;;;;;;69.85;24.92;;;;;;;;;;5055370;28;20052;-75
2021/08/26 06:50:44;;;;;;;60.08;24.45;;;;;;;;;;5055332;28;20017;-74
2021/08/26 06:53:09;;;;;;;53.30;23.17;;;;;;;;;;5055543;28;20044;-75
2021/08/26 06:55:35;;;;;;;60.30;23.40;;;;;;;;;;5055578;28;20025;-75
2021/08/26 06:58:00;;;;;;;60.58;25.35;;;;;;;;;;5055683;28;20029;-75
2021/08/26 07:00:25;;;;;;;55.30;24.70;;;;;;;;;;5055187;28;20167;-75
2021/08/26 07:02:52;;;;;;;58.65;25.73;;;;;;;;;;5054814;28;20032;-75
2021/08/26 07:05:17;;;;;;;53.22;20.88;;;;;;;;;;5055530;28;20104;-75
2021/08/26 07:07:43;;;;;;;48.00;21.88;;;;;;;;;;5055461;28;20064;-75
2021/08/26 07:10:08;;;;;;;50.17;20.73;;;;;;;;;;5055351;28;20441;-75
2021/08/26 07:12:33;;;;;;;44.63;19.70;;;;;;;;;;5055350;28;20029;-74
2021/08/26 07:14:59;;;;;;;44.92;19.65;;;;;;;;;;5055184;28;20036;-75
2021/08/26 07:17:25;;;;;;;47.47;19.80;;;;;;;;;;5054483;28;20366;-75
2021/08/26 07:19:50;;;;;;;50.92;21.05;;;;;;;;;;5054982;28;20036;-75
2021/08/26 07:22:15;;;;;;;45.45;20.23;;;;;;;;;;5054902;28;20037;-76
2021/08/26 07:24:41;;;;;;;41.33;18.52;;;;;;;;;;5054452;28;20079;-74
2021/08/26 07:27:06;;;;;;;33.35;17.55;;;;;;;;;;5053637;28;20040;-75
2021/08/26 07:29:31;;;;;;;30.23;16.52;;;;;;;;;;5055013;28;20171;-75
2021/08/26 07:31:57;;;;;;;32.65;16.45;;;;;;;;;;5054522;28;20462;-75
2021/08/26 07:34:22;;;;;;;32.25;16.45;;;;;;;;;;5055115;28;20025;-75
2021/08/26 07:36:47;;;;;;;32.47;15.75;;;;;;;;;;5054909;28;20036;-77
2021/08/26 07:39:13;;;;;;;26.48;14.70;;;;;;;;;;5054665;28;20462;-75
2021/08/26 07:41:38;;;;;;;33.47;16.13;;;;;;;;;;5055240;28;20131;-75
2021/08/26 07:44:03;;;;;;;30.90;16.48;;;;;;;;;;5054528;28;20040;-76
2021/08/26 07:46:28;;;;;;;30.48;16.45;;;;;;;;;;5045097;28;20575;-75
2021/08/26 07:48:54;;;;;;;25.85;15.05;;;;;;;;;;5053604;28;20032;-76
2021/08/26 07:51:19;;;;;;;29.02;15.15;;;;;;;;;;5035187;28;20078;-76
2021/08/26 07:53:44;;;;;;;28.25;15.00;;;;;;;;;;5053398;28;20021;-75
2021/08/26 07:56:09;;;;;;;28.95;13.68;;;;;;;;;;5053491;28;20475;-76
2021/08/26 07:58:35;;;;;;;29.65;15.95;;;;;;;;;;5053158;28;20043;-75
2021/08/26 08:01:00;;;;;;;27.95;15.73;;;;;;;;;;5052391;28;20033;-76
2021/08/26 08:03:26;;;;;;;28.58;15.30;;;;;;;;;;5053649;28;20042;-75
2021/08/26 08:05:52;;;;;;;24.15;15.50;;;;;;;;;;5053594;28;20036;-76
2021/08/26 08:08:17;;;;;;;30.55;16.98;;;;;;;;;;5053854;28;20052;-76
2021/08/26 08:10:43;;;;;;;25.52;15.05;;;;;;;;;;5036304;28;20366;-75
2021/08/26 08:13:08;;;;;;;36.20;19.10;;;;;;;;;;5054129;28;20052;-76
2021/08/26 08:15:34;;;;;;;24.70;14.90;;;;;;;;;;5054120;28;20021;-76
2021/08/26 08:17:59;;;;;;;23.05;13.40;;;;;;;;;;5053690;28;20523;-75
2021/08/26 08:20:24;;;;;;;22.88;13.48;;;;;;;;;;5054049;28;20141;-75
2021/08/26 08:22:50;;;;;;;28.35;14.48;;;;;;;;;;5053613;28;20063;-76
2021/08/26 08:25:15;;;;;;;25.70;17.08;;;;;;;;;;5053764;28;20063;-76
2021/08/26 08:27:41;;;;;;;26.98;15.60;;;;;;;;;;5053812;28;20033;-75
2021/08/26 08:30:06;;;;;;;28.83;14.73;;;;;;;;;;5053425;28;20028;-76
2021/08/26 08:32:32;;;;;;;25.77;16.13;;;;;;;;;;5053114;28;20049;-75
2021/08/26 08:34:57;;;;;;;23.02;12.13;;;;;;;;;;5053664;28;20377;-76
2021/08/26 08:37:22;;;;;;;17.77;11.98;;;;;;;;;;5053584;28;20354;-76
2021/08/26 08:39:48;;;;;;;22.75;12.80;;;;;;;;;;5053744;28;20025;-76
2021/08/26 08:42:13;;;;;;;22.42;13.25;;;;;;;;;;5053539;28;20033;-76
2021/08/26 08:44:38;;;;;;;22.23;13.57;;;;;;;;;;5053589;28;20078;-76
2021/08/26 08:47:04;;;;;;;28.90;14.68;;;;;;;;;;5053479;28;20024;-75
2021/08/26 08:49:30;;;;;;;23.08;13.25;;;;;;;;;;5053693;28;20037;-75
2021/08/26 08:51:55;;;;;;;21.05;13.02;;;;;;;;;;5053213;28;20447;-76
2021/08/26 08:54:22;;;;;;;21.05;12.52;;;;;;;;;;5053417;28;20418;-76
2021/08/26 08:56:47;;;;;;;23.02;13.07;;;;;;;;;;5053263;28;20473;-76
2021/08/26 08:59:12;;;;;;;23.05;12.38;;;;;;;;;;5053686;28;20017;-76
2021/08/26 09:01:38;;;;;;;21.48;12.68;;;;;;;;;;5053325;28;20032;-75
2021/08/26 09:04:06;;;;;;;22.95;12.80;;;;;;;;;;5053239;28;20457;-76
2021/08/26 09:06:40;;;;;;;18.33;12.02;;;;;;;;;;5053410;28;20028;-76
2021/08/26 09:09:06;;;;;;;19.42;12.88;;;;;;;;;;5053170;28;20029;-76
2021/08/26 09:11:32;;;;;;;23.65;12.63;;;;;;;;;;5053302;28;20029;-76
2021/08/26 09:14:06;;;;;;;18.42;11.57;;;;;;;;;;5053086;28;20080;-75
2021/08/26 09:16:36;;;;;;;17.35;9.90;;;;;;;;;;5052082;28;20647;-77
2021/08/26 09:19:20;;;;;;;15.32;10.48;;;;;;;;;;5050496;28;20044;-76
2021/08/26 09:21:45;;;;;;;16.65;10.38;;;;;;;;;;5052811;28;20469;-76
2021/08/26 09:24:10;;;;;;;15.73;10.45;;;;;;;;;;5052586;28;20076;-76
2021/08/26 09:26:36;;;;;;;18.10;10.57;;;;;;;;;;5052637;28;20052;-76
2021/08/26 09:29:04;;;;;;;15.60;9.85;;;;;;;;;;5052550;28;20052;-78
2021/08/26 09:31:30;;;;;;;12.98;8.60;;;;;;;;;;5053096;28;20049;-78
2021/08/26 09:34:04;;;;;;;14.25;9.25;;;;;;;;;;5034862;28;20017;-78
2021/08/26 09:36:33;;;;;;;13.77;7.68;;;;;;;;;;5052809;28;20163;-78
2021/08/26 09:39:04;;;;;;;15.02;8.88;;;;;;;;;;5052678;28;20040;-75
2021/08/26 09:41:37;;;;;;;13.32;8.63;;;;;;;;;;5039037;28;20158;-76
2021/08/26 09:44:04;;;;;;;14.15;8.60;;;;;;;;;;5051907;28;20080;-76
2021/08/26 09:46:30;;;;;;;11.32;7.78;;;;;;;;;;5052589;28;20115;-76
2021/08/26 09:49:21;;;;;;;10.50;6.68;;;;;;;;;;5051539;28;20029;-76
2021/08/26 09:52:04;;;;;;;9.85;6.22;;;;;;;;;;5050868;28;20041;-78
2021/08/26 09:54:39;;;;;;;8.20;4.95;;;;;;;;;;5055620;28;20499;-78
2021/08/26 09:57:06;;;;;;;7.80;5.07;;;;;;;;;;5055617;28;20033;-78
2021/08/26 09:59:44;;;;;;;7.47;5.10;;;;;;;;;;5055369;28;20028;-76
2021/08/26 10:02:10;;;;;;;7.70;4.53;;;;;;;;;;5055488;28;20033;-77
2021/08/26 10:04:36;;;;;;;11.20;4.68;;;;;;;;;;5037333;28;20048;-77
2021/08/26 10:07:01;;;;;;;5.95;3.88;;;;;;;;;;5055415;28;20052;-77
2021/08/26 10:09:28;;;;;;;7.63;4.15;;;;;;;;;;5055250;28;20033;-76
2021/08/26 10:11:53;;;;;;;7.95;3.70;;;;;;;;;;5055567;28;20040;-77
2021/08/26 10:14:18;;;;;;;6.55;3.60;;;;;;;;;;5053953;28;20017;-76
2021/08/26 10:16:44;;;;;;;6.22;3.63;;;;;;;;;;5054767;28;20438;-77
2021/08/26 10:19:12;;;;;;;5.82;3.70;;;;;;;;;;5052999;28;20037;-78
2021/08/26 10:21:37;;;;;;;7.07;3.17;;;;;;;;;;5055581;28;20037;-77
2021/08/26 10:24:03;;;;;;;4.70;3.17;;;;;;;;;;5055352;28;20090;-77
2021/08/26 10:26:29;;;;;;;4.63;3.53;;;;;;;;;;5054558;28;20025;-78
2021/08/26 10:28:54;;;;;;;5.38;2.92;;;;;;;;;;5053838;28;20500;-78
2021/08/26 10:31:23;;;;;;;7.25;3.45;;;;;;;;;;5053888;28;20041;-78
2021/08/26 10:33:48;;;;;;;5.80;2.97;;;;;;;;;;5054154;28;20033;-77
2021/08/26 10:36:15;;;;;;;5.28;3.50;;;;;;;;;;5053920;28;20098;-78
2021/08/26 10:38:40;;;;;;;6.75;3.30;;;;;;;;;;5054114;28;20108;-78
2021/08/26 10:41:17;;;;;;;4.20;2.75;;;;;;;;;;5054365;28;20129;-78
2021/08/26 10:43:43;;;;;;;5.78;3.17;;;;;;;;;;5056034;28;20028;-77
2021/08/26 10:46:10;;;;;;;6.45;2.95;;;;;;;;;;5055820;28;20534;-76
2021/08/26 10:48:35;;;;;;;9.65;3.33;;;;;;;;;;5056086;28;20465;-76
2021/08/26 10:51:07;;;;;;;9.07;3.17;;;;;;;;;;5055370;28;20035;-76
2021/08/26 10:53:33;;;;;;;5.82;3.30;;;;;;;;;;5055958;28;20112;-76
2021/08/26 10:56:15;;;;;;;6.38;3.50;;;;;;;;;;5055370;28;20462;-77
2021/08/26 10:58:41;;;;;;;5.63;3.13;;;;;;;;;;5055761;28;20036;-76
2021/08/26 11:01:07;;;;;;;6.35;3.80;;;;;;;;;;5053772;28;20045;-77
2021/08/26 11:03:35;;;;;;;5.70;2.90;;;;;;;;;;5055755;28;20020;-76
2021/08/26 11:06:01;;;;;;;7.07;3.38;;;;;;;;;;5055472;28;20036;-76
2021/08/26 11:08:30;;;;;;;5.80;3.75;;;;;;;;;;5055814;28;20453;-76
2021/08/26 11:10:56;;;;;;;5.35;3.45;;;;;;;;;;5055030;28;20488;-77
2021/08/26 11:13:28;;;;;;;6.50;3.08;;;;;;;;;;5055413;28;20160;-76
2021/08/26 11:15:54;;;;;;;6.15;3.53;;;;;;;;;;5055584;28;20358;-78
2021/08/26 11:18:26;;;;;;;7.15;3.42;;;;;;;;;;5055295;28;20025;-75
2021/08/26 11:20:52;;;;;;;10.45;3.40;;;;;;;;;;5055201;28;20045;-76
2021/08/26 11:23:17;;;;;;;4.82;3.20;;;;;;;;;;5055189;28;20385;-76
2021/08/26 11:25:42;;;;;;;4.43;2.72;;;;;;;;;;5055148;28;20385;-76
2021/08/26 11:28:39;;;;;;;4.15;2.70;;;;;;;;;;5055050;28;20028;-76
2021/08/26 11:31:15;;;;;;;4.55;3.20;;;;;;;;;;5034750;28;20049;-76
2021/08/26 11:33:40;;;;;;;7.72;3.17;;;;;;;;;;5055156;28;20132;-76
2021/08/26 11:36:12;;;;;;;6.40;3.55;;;;;;;;;;5054821;28;20112;-77
2021/08/26 11:38:47;;;;;;;10.50;3.92;;;;;;;;;;5054920;28;20103;-76
2021/08/26 11:41:12;;;;;;;;;;;;;;;;;;5055024;28;20040;-75
2021/08/26 11:43:42;;;;;;;7.93;3.05;;;;;;;;;;5054477;28;19912;-76
2021/08/26 11:46:11;;;;;;;6.47;3.58;;;;;;;;;;5054621;28;20112;-77
2021/08/26 11:48:45;;;;;;;4.63;3.08;;;;;;;;;;5036730;28;20029;-76
2021/08/26 11:51:18;;;;;;;4.78;3.33;;;;;;;;;;5054445;28;20023;-76
2021/08/26 11:53:43;;;;;;;5.20;2.72;;;;;;;;;;5054325;28;20033;-75
2021/08/26 11:56:09;;;;;;;4.53;2.95;;;;;;;;;;5054401;28;20071;-76
2021/08/26 11:58:34;;;;;;;6.05;3.20;;;;;;;;;;5054623;28;20017;-76
2021/08/26 12:00:59;;;;;;;5.45;2.78;;;;;;;;;;5054320;28;20071;-76
2021/08/26 12:03:26;;;;;;;4.80;2.85;;;;;;;;;;5053967;28;20024;-76
2021/08/26 12:05:52;;;;;;;4.72;2.80;;;;;;;;;;5053403;28;20087;-76
2021/08/26 12:08:17;;;;;;;5.88;3.25;;;;;;;;;;5054156;28;20466;-76
2021/08/26 12:10:44;;;;;;;4.90;2.78;;;;;;;;;;5054140;28;20511;-75
2021/08/26 12:13:11;;;;;;;5.32;2.97;;;;;;;;;;5053461;28;20422;-76
2021/08/26 12:15:39;;;;;;;5.55;2.35;;;;;;;;;;5053899;28;20211;-76
2021/08/26 12:18:13;;;;;;;6.65;2.60;;;;;;;;;;5054030;28;20096;-77
2021/08/26 12:20:46;;;;;;;5.95;2.60;;;;;;;;;;5053521;28;20124;-76
2021/08/26 12:23:15;;;;;;;4.60;2.75;;;;;;;;;;5054064;28;20029;-76
2021/08/26 12:25:41;;;;;;;4.95;2.72;;;;;;;;;;5053565;28;20091;-76
2021/08/26 12:28:07;;;;;;;4.15;2.70;;;;;;;;;;5053785;28;20029;-76
2021/08/26 12:30:43;;;;;;;3.90;2.35;;;;;;;;;;5053393;28;20017;-76
2021/08/26 12:33:13;;;;;;;5.75;2.90;;;;;;;;;;5053671;28;20029;-76
2021/08/26 12:35:39;;;;;;;5.13;2.85;;;;;;;;;;5053855;28;20029;-76
2021/08/26 12:38:04;;;;;;;4.55;2.20;;;;;;;;;;5053653;28;20036;-77
2021/08/26 12:40:44;;;;;;;4.65;2.50;;;;;;;;;;5053623;28;20045;-76
2021/08/26 12:43:10;;;;;;;4.82;3.00;;;;;;;;;;5052103;28;20424;-78
2021/08/26 12:45:36;;;;;;;4.65;2.45;;;;;;;;;;5033552;28;20038;-76
2021/08/26 12:48:20;;;;;;;4.57;2.13;;;;;;;;;;5033054;28;20037;-76
2021/08/26 12:50:46;;;;;;;4.90;3.33;;;;;;;;;;5033586;28;20038;-76
2021/08/26 12:53:18;;;;;;;5.55;2.17;;;;;;;;;;5033208;28;20040;-76
2021/08/26 12:55:56;;;;;;;4.55;2.38;;;;;;;;;;5033344;28;20473;-76
2021/08/26 12:58:22;;;;;;;5.47;2.30;;;;;;;;;;5033530;28;20030;-77
2021/08/26 13:00:47;;;;;;;5.63;2.55;;;;;;;;;;5033529;28;20042;-76
2021/08/26 13:03:12;;;;;;;7.38;2.60;;;;;;;;;;5033172;28;20036;-76
2021/08/26 13:06:04;;;;;;;3.53;1.98;;;;;;;;;;5033823;28;20029;-76
2021/08/26 13:08:41;;;;;;;4.38;2.33;;;;;;;;;;5028436;28;20489;-76
2021/08/26 13:11:09;;;;;;;3.28;2.13;;;;;;;;;;5033335;28;20053;-76
2021/08/26 13:13:34;;;;;;;5.53;2.03;;;;;;;;;;5045961;28;20033;-77
2021/08/26 13:15:59;;;;;;;6.88;2.75;;;;;;;;;;5044188;28;20017;-77
2021/08/26 13:18:24;;;;;;;4.45;2.00;;;;;;;;;;5052454;28;20029;-76
2021/08/26 13:20:50;;;;;;;4.53;2.03;;;;;;;;;;5052817;28;20045;-76
2021/08/26 13:23:16;;;;;;;4.40;2.30;;;;;;;;;;5053100;28;20060;-75
2021/08/26 13:25:42;;;;;;;6.80;2.50;;;;;;;;;;5056306;28;20025;-76
2021/08/26 13:28:07;;;;;;;5.07;1.75;;;;;;;;;;5056994;28;20047;-76
2021/08/26 13:30:32;;;;;;;4.75;2.20;;;;;;;;;;5057468;28;20025;-76
2021/08/26 13:32:58;;;;;;;5.10;2.25;;;;;;;;;;5057333;28;20029;-77
2021/08/26 13:35:23;;;;;;;5.20;2.75;;;;;;;;;;5039288;28;20095;-76
2021/08/26 13:37:48;;;;;;;3.45;2.13;;;;;;;;;;5057210;28;20025;-77
2021/08/26 13:40:16;;;;;;;3.95;2.40;;;;;;;;;;5056809;28;20175;-76
2021/08/26 13:42:41;;;;;;;11.48;3.28;;;;;;;;;;5057004;28;20449;-76
2021/08/26 13:45:08;;;;;;;4.72;2.10;;;;;;;;;;5056593;28;20049;-76
2021/08/26 13:47:34;;;;;;;4.95;2.50;;;;;;;;;;5056821;28;20078;-76
2021/08/26 13:49:59;;;;;;;5.22;2.33;;;;;;;;;;5057237;28;20119;-76
2021/08/26 13:52:26;;;;;;;7.82;2.40;;;;;;;;;;5056819;28;20480;-76
2021/08/26 13:54:52;;;;;;;5.07;2.30;;;;;;;;;;5056880;28;20025;-76
2021/08/26 13:57:17;;;;;;;4.25;1.98;;;;;;;;;;5056195;28;20166;-77
2021/08/26 13:59:42;;;;;;;6.28;2.45;;;;;;;;;;5056612;28;20024;-76
2021/08/26 14:02:08;;;;;;;6.90;2.97;;;;;;;;;;5056521;28;20362;-77
2021/08/26 14:04:33;;;;;;;7.85;2.30;;;;;;;;;;5056678;28;20033;-76
2021/08/26 14:06:59;;;;;;;6.70;2.35;;;;;;;;;;5056301;28;20426;-76
2021/08/26 14:09:24;;;;;;;6.65;2.22;;;;;;;;;;5056270;28;20099;-76
2021/08/26 14:11:50;;;;;;;5.53;2.30;;;;;;;;;;5056532;28;20462;-76
2021/08/26 14:14:16;;;;;;;6.38;2.33;;;;;;;;;;5056352;28;20032;-76
2021/08/26 14:16:41;;;;;;;4.18;2.20;;;;;;;;;;5056401;28;20036;-76
2021/08/26 14:19:06;;;;;;;4.50;2.17;;;;;;;;;;5055980;28;20037;-76
2021/08/26 14:21:31;;;;;;;6.40;2.63;;;;;;;;;;5056343;28;20025;-76
2021/08/26 14:23:57;;;;;;;6.63;2.78;;;;;;;;;;5056305;28;20116;-76
2021/08/26 14:26:22;;;;;;;5.05;2.50;;;;;;;;;;5055858;28;20059;-76
2021/08/26 14:28:47;;;;;;;5.55;2.50;;;;;;;;;;5056601;28;20059;-76